Time;durP1;ratioP1;P1;durP2;ratioP2;P2;SDS_P1;SDS_P2;PMS_P1;PMS_P2;Temp;Humidity;BMP_temperature;BMP_pressure;BME280_temperature;BME280_humidity;BME280_pressure;Samples;Min_cycle;Max_cycle;Signal;HPM_P1;HPM_P2
2021/08/03 00:01:20;;;;;;;7.17;5.40;;;;;;;;;;5137186;27;20193;-83
2021/08/03 00:03:55;;;;;;;6.23;5.13;;;;;;;;;;5137621;27;20287;-83
2021/08/03 00:06:23;;;;;;;6.23;4.83;;;;;;;;;;5136443;27;20311;-83
2021/08/03 00:08:53;;;;;;;6.80;5.20;;;;;;;;;;5136054;27;20223;-83
2021/08/03 00:11:21;;;;;;;8.40;5.60;;;;;;;;;;5136508;27;20292;-83
2021/08/03 00:13:48;;;;;;;7.10;5.17;;;;;;;;;;5136455;27;20235;-83
2021/08/03 00:16:16;;;;;;;7.80;4.70;;;;;;;;;;5135762;27;20276;-83
2021/08/03 00:18:44;;;;;;;7.43;5.47;;;;;;;;;;5136091;27;20199;-83
2021/08/03 00:21:12;;;;;;;6.87;5.23;;;;;;;;;;5135326;27;20292;-83
2021/08/03 00:23:41;;;;;;;5.70;4.80;;;;;;;;;;5135153;27;20201;-83
2021/08/03 00:26:11;;;;;;;6.77;5.27;;;;;;;;;;5136042;27;20231;-83
2021/08/03 00:28:38;;;;;;;7.73;4.83;;;;;;;;;;5136102;27;20227;-83
2021/08/03 00:31:06;;;;;;;5.93;4.93;;;;;;;;;;5137006;27;20741;-83
2021/08/03 00:33:33;;;;;;;7.87;5.13;;;;;;;;;;5136700;27;20629;-83
2021/08/03 00:36:00;;;;;;;6.80;5.37;;;;;;;;;;5136582;27;20280;-83
2021/08/03 00:38:29;;;;;;;7.40;5.70;;;;;;;;;;5137134;27;20200;-83
2021/08/03 00:40:59;;;;;;;6.23;4.97;;;;;;;;;;5137230;27;20284;-83
2021/08/03 00:43:26;;;;;;;6.87;5.20;;;;;;;;;;5137453;27;20289;-83
2021/08/03 00:45:53;;;;;;;8.87;5.80;;;;;;;;;;5136124;27;20249;-83
2021/08/03 00:48:20;;;;;;;7.83;5.90;;;;;;;;;;5133827;27;20199;-83
2021/08/03 00:50:48;;;;;;;7.20;4.97;;;;;;;;;;5133747;27;20215;-83
2021/08/03 00:53:16;;;;;;;6.27;5.53;;;;;;;;;;5113126;27;20260;-83
2021/08/03 00:55:45;;;;;;;8.23;5.67;;;;;;;;;;5112969;27;20233;-83
2021/08/03 00:58:12;;;;;;;7.87;5.43;;;;;;;;;;5113403;28;20304;-83
2021/08/03 01:00:39;;;;;;;8.40;5.60;;;;;;;;;;5113019;28;20213;-83
2021/08/03 01:03:07;;;;;;;8.87;5.60;;;;;;;;;;5113106;28;20254;-83
2021/08/03 01:05:39;;;;;;;6.60;5.80;;;;;;;;;;5112749;28;20222;-83
2021/08/03 01:08:10;;;;;;;6.47;5.67;;;;;;;;;;5113113;28;20372;-83
2021/08/03 01:10:45;;;;;;;7.10;5.27;;;;;;;;;;5112991;28;20733;-82
2021/08/03 01:13:16;;;;;;;7.50;5.17;;;;;;;;;;5113008;28;20201;-83
2021/08/03 01:15:48;;;;;;;6.43;5.10;;;;;;;;;;5112977;28;20301;-83
2021/08/03 01:18:18;;;;;;;5.80;5.20;;;;;;;;;;5113096;28;20284;-83
2021/08/03 01:20:59;;;;;;;11.20;6.30;;;;;;;;;;5111866;28;20285;-83
2021/08/03 01:23:43;;;;;;;7.23;6.00;;;;;;;;;;5112964;28;20637;-83
2021/08/03 01:26:25;;;;;;;9.67;6.43;;;;;;;;;;5112359;28;20250;-83
2021/08/03 01:28:55;;;;;;;12.03;6.40;;;;;;;;;;5110608;28;20201;-83
2021/08/03 01:31:24;;;;;;;10.77;6.13;;;;;;;;;;5112962;28;20297;-83
2021/08/03 01:33:55;;;;;;;9.23;7.00;;;;;;;;;;5112900;28;20201;-83
2021/08/03 01:36:22;;;;;;;6.97;6.03;;;;;;;;;;5112855;28;20204;-83
2021/08/03 01:38:50;;;;;;;8.07;5.93;;;;;;;;;;5112597;28;20288;-83
2021/08/03 01:41:19;;;;;;;10.20;6.70;;;;;;;;;;5112453;27;20229;-83
2021/08/03 01:43:47;;;;;;;8.03;6.10;;;;;;;;;;5112688;28;20284;-83
2021/08/03 01:46:18;;;;;;;8.50;6.27;;;;;;;;;;5112409;28;20272;-83
2021/08/03 01:48:47;;;;;;;7.00;6.30;;;;;;;;;;5112204;28;20285;-83
2021/08/03 01:51:15;;;;;;;8.43;6.03;;;;;;;;;;5112216;28;20755;-83
2021/08/03 01:53:43;;;;;;;12.03;7.17;;;;;;;;;;5112570;28;20324;-83
2021/08/03 01:56:11;;;;;;;9.10;6.20;;;;;;;;;;5112846;28;20292;-83
2021/08/03 01:58:39;;;;;;;11.23;6.70;;;;;;;;;;5112755;28;20197;-83
2021/08/03 02:01:08;;;;;;;7.97;6.53;;;;;;;;;;5112339;28;20277;-83
2021/08/03 02:03:37;;;;;;;7.13;6.13;;;;;;;;;;5112430;28;20229;-83
2021/08/03 02:06:05;;;;;;;7.33;5.90;;;;;;;;;;5112480;28;20276;-83
2021/08/03 02:08:35;;;;;;;8.97;5.90;;;;;;;;;;5112476;28;20640;-83
2021/08/03 02:11:02;;;;;;;8.40;6.37;;;;;;;;;;5112225;28;20206;-83
2021/08/03 02:13:29;;;;;;;9.27;6.33;;;;;;;;;;5112592;28;20212;-83
2021/08/03 02:15:57;;;;;;;9.13;6.37;;;;;;;;;;5112468;28;20284;-83
2021/08/03 02:18:24;;;;;;;8.40;6.07;;;;;;;;;;5112005;28;20284;-83
2021/08/03 02:20:53;;;;;;;8.80;6.70;;;;;;;;;;5112188;28;20218;-83
2021/08/03 02:23:20;;;;;;;7.93;6.80;;;;;;;;;;5112618;28;20204;-83
2021/08/03 02:25:48;;;;;;;9.03;6.50;;;;;;;;;;5112589;28;20289;-83
2021/08/03 02:28:15;;;;;;;8.70;6.80;;;;;;;;;;5112071;28;20634;-83
2021/08/03 02:30:45;;;;;;;8.13;6.50;;;;;;;;;;5112006;28;20248;-83
2021/08/03 02:33:16;;;;;;;9.67;6.33;;;;;;;;;;5112074;28;20297;-83
2021/08/03 02:35:44;;;;;;;9.07;6.73;;;;;;;;;;5112352;28;20225;-83
2021/08/03 02:38:14;;;;;;;10.33;6.33;;;;;;;;;;5112959;28;20281;-83
2021/08/03 02:40:42;;;;;;;8.77;7.00;;;;;;;;;;5115775;27;20292;-83
2021/08/03 02:43:09;;;;;;;7.83;6.50;;;;;;;;;;5123028;27;20288;-83
2021/08/03 02:45:38;;;;;;;8.30;6.17;;;;;;;;;;5136519;27;20225;-83
2021/08/03 02:48:11;;;;;;;9.00;6.30;;;;;;;;;;5135759;27;20802;-83
2021/08/03 02:50:39;;;;;;;8.07;6.10;;;;;;;;;;5136671;27;20201;-83
2021/08/03 02:53:08;;;;;;;8.37;6.50;;;;;;;;;;5135916;27;20315;-83
2021/08/03 02:55:40;;;;;;;9.37;6.17;;;;;;;;;;5136392;27;20280;-83
2021/08/03 02:58:10;;;;;;;7.50;5.37;;;;;;;;;;5136358;27;20384;-83
2021/08/03 03:00:38;;;;;;;6.77;5.53;;;;;;;;;;5136192;27;20280;-83
2021/08/03 03:03:07;;;;;;;7.33;5.57;;;;;;;;;;5135721;27;20640;-83
2021/08/03 03:05:36;;;;;;;6.60;5.17;;;;;;;;;;5136095;27;20220;-84
2021/08/03 03:08:14;;;;;;;6.60;5.40;;;;;;;;;;5135955;27;20267;-83
2021/08/03 03:10:45;;;;;;;6.97;5.73;;;;;;;;;;5134120;27;20201;-83
2021/08/03 03:13:15;;;;;;;6.80;5.53;;;;;;;;;;5136110;27;20284;-83
2021/08/03 03:15:43;;;;;;;7.57;5.80;;;;;;;;;;5135528;27;20228;-83
2021/08/03 03:18:11;;;;;;;6.90;5.77;;;;;;;;;;5135826;27;20189;-83
2021/08/03 03:20:39;;;;;;;6.37;5.53;;;;;;;;;;5135930;27;20280;-83
2021/08/03 03:23:07;;;;;;;7.10;5.43;;;;;;;;;;5135319;27;20287;-83
2021/08/03 03:25:34;;;;;;;8.20;5.53;;;;;;;;;;5135814;27;20236;-83
2021/08/03 03:28:03;;;;;;;8.07;5.10;;;;;;;;;;5135651;27;20313;-83
2021/08/03 03:30:32;;;;;;;6.23;5.17;;;;;;;;;;5135178;27;20374;-83
2021/08/03 03:33:04;;;;;;;7.53;5.50;;;;;;;;;;5135511;27;20973;-83
2021/08/03 03:35:31;;;;;;;7.03;5.50;;;;;;;;;;5135531;27;20196;-83
2021/08/03 03:37:59;;;;;;;6.87;5.73;;;;;;;;;;5135272;27;20280;-82
2021/08/03 03:40:28;;;;;;;7.07;5.87;;;;;;;;;;5135610;27;20288;-83
2021/08/03 03:42:56;;;;;;;7.10;5.50;;;;;;;;;;5130034;27;20208;-83
2021/08/03 03:45:25;;;;;;;7.23;6.00;;;;;;;;;;5114636;27;20284;-83
2021/08/03 03:47:57;;;;;;;8.97;6.57;;;;;;;;;;5114801;28;20312;-83
2021/08/03 03:50:28;;;;;;;8.13;6.60;;;;;;;;;;5113618;27;20198;-83
2021/08/03 03:52:59;;;;;;;10.67;6.40;;;;;;;;;;5114749;27;20724;-84
2021/08/03 03:55:26;;;;;;;8.27;6.70;;;;;;;;;;5114540;27;20600;-83
2021/08/03 03:57:53;;;;;;;8.97;6.90;;;;;;;;;;5114574;28;20292;-83
2021/08/03 04:00:21;;;;;;;10.97;6.97;;;;;;;;;;5114187;28;20225;-83
2021/08/03 04:02:50;;;;;;;7.83;6.20;;;;;;;;;;5113078;28;20681;-83
2021/08/03 04:05:18;;;;;;;10.03;6.73;;;;;;;;;;5114492;28;20280;-83
2021/08/03 04:07:50;;;;;;;9.33;6.90;;;;;;;;;;5114595;28;20252;-83
2021/08/03 04:10:18;;;;;;;9.30;6.23;;;;;;;;;;5114435;28;20586;-83
2021/08/03 04:12:45;;;;;;;9.13;6.67;;;;;;;;;;5113971;28;20687;-84
2021/08/03 04:15:14;;;;;;;8.20;6.20;;;;;;;;;;5114311;28;20225;-83
2021/08/03 04:17:41;;;;;;;10.73;6.83;;;;;;;;;;5113835;28;20240;-83
2021/08/03 04:20:10;;;;;;;9.30;6.87;;;;;;;;;;5114214;27;20331;-84
2021/08/03 04:22:38;;;;;;;7.97;6.60;;;;;;;;;;5113989;28;20661;-84
2021/08/03 04:25:05;;;;;;;9.80;6.77;;;;;;;;;;5114222;28;20230;-83
2021/08/03 04:27:33;;;;;;;10.47;6.83;;;;;;;;;;5113720;28;20788;-83
2021/08/03 04:30:00;;;;;;;8.30;6.90;;;;;;;;;;5113979;28;20284;-83
2021/08/03 04:32:27;;;;;;;8.63;7.03;;;;;;;;;;5114103;28;20288;-83
2021/08/03 04:34:54;;;;;;;10.07;7.63;;;;;;;;;;5114248;28;20201;-83
2021/08/03 04:37:23;;;;;;;7.97;6.63;;;;;;;;;;5114102;28;20204;-83
2021/08/03 04:39:50;;;;;;;8.83;7.50;;;;;;;;;;5114055;28;20292;-83
2021/08/03 04:42:17;;;;;;;8.33;7.13;;;;;;;;;;5113646;28;20202;-83
2021/08/03 04:44:45;;;;;;;10.03;7.20;;;;;;;;;;5113881;28;20244;-83
2021/08/03 04:47:12;;;;;;;10.10;7.63;;;;;;;;;;5113582;28;20261;-83
2021/08/03 04:49:39;;;;;;;9.97;8.00;;;;;;;;;;5113727;28;20307;-83
2021/08/03 04:52:07;;;;;;;9.27;7.83;;;;;;;;;;5113424;28;20232;-83
2021/08/03 04:54:35;;;;;;;9.77;8.07;;;;;;;;;;5113054;28;20316;-83
2021/08/03 04:57:02;;;;;;;11.53;7.80;;;;;;;;;;5113143;28;20277;-83
2021/08/03 04:59:29;;;;;;;10.57;8.37;;;;;;;;;;5113419;28;20288;-83
2021/08/03 05:01:57;;;;;;;10.30;8.07;;;;;;;;;;5113093;28;20240;-83
2021/08/03 05:04:24;;;;;;;10.83;8.53;;;;;;;;;;5113729;28;20284;-83
2021/08/03 05:06:51;;;;;;;10.37;8.33;;;;;;;;;;5113104;28;20288;-83
2021/08/03 05:09:18;;;;;;;13.23;8.90;;;;;;;;;;5112914;28;20218;-83
2021/08/03 05:11:47;;;;;;;11.17;8.57;;;;;;;;;;5113234;27;20272;-83
2021/08/03 05:14:15;;;;;;;11.37;8.43;;;;;;;;;;5113101;28;20244;-83
2021/08/03 05:16:42;;;;;;;14.37;9.10;;;;;;;;;;5113064;28;20221;-83
2021/08/03 05:19:09;;;;;;;11.87;8.63;;;;;;;;;;5112891;28;20669;-83
2021/08/03 05:21:36;;;;;;;10.97;8.20;;;;;;;;;;5112873;28;20719;-83
2021/08/03 05:24:04;;;;;;;11.70;9.33;;;;;;;;;;5113245;28;20681;-83
2021/08/03 05:26:31;;;;;;;9.53;8.33;;;;;;;;;;5112458;28;20730;-82
2021/08/03 05:28:59;;;;;;;10.00;8.90;;;;;;;;;;5112938;28;20263;-83
2021/08/03 05:31:27;;;;;;;11.50;8.47;;;;;;;;;;5112648;28;20237;-83
2021/08/03 05:33:54;;;;;;;10.03;7.57;;;;;;;;;;5112714;28;20226;-84
2021/08/03 05:36:21;;;;;;;9.43;7.53;;;;;;;;;;5112989;28;20233;-83
2021/08/03 05:38:49;;;;;;;9.20;7.67;;;;;;;;;;5113555;28;20281;-83
2021/08/03 05:41:16;;;;;;;11.37;8.13;;;;;;;;;;5112892;28;20221;-83
2021/08/03 05:43:43;;;;;;;13.60;8.13;;;;;;;;;;5124897;28;20251;-83
2021/08/03 05:46:12;;;;;;;12.00;8.23;;;;;;;;;;5133724;27;20308;-83
2021/08/03 05:48:39;;;;;;;11.53;8.50;;;;;;;;;;5133097;27;20271;-83
2021/08/03 05:51:06;;;;;;;11.77;7.97;;;;;;;;;;5133389;27;20224;-83
2021/08/03 05:53:33;;;;;;;10.10;7.87;;;;;;;;;;5133237;27;20275;-83
2021/08/03 05:56:01;;;;;;;11.47;8.10;;;;;;;;;;5133147;27;20288;-83
2021/08/03 05:58:28;;;;;;;11.53;8.10;;;;;;;;;;5133584;27;20224;-83
2021/08/03 06:00:55;;;;;;;10.27;7.77;;;;;;;;;;5133060;27;20214;-83
2021/08/03 06:03:23;;;;;;;11.30;8.13;;;;;;;;;;5133540;27;20299;-83
2021/08/03 06:05:51;;;;;;;10.63;8.87;;;;;;;;;;5133371;27;20288;-83
2021/08/03 06:08:24;;;;;;;10.33;8.63;;;;;;;;;;5132793;27;20720;-83
2021/08/03 06:10:52;;;;;;;10.87;8.90;;;;;;;;;;5132935;27;20288;-83
2021/08/03 06:13:19;;;;;;;10.63;8.80;;;;;;;;;;5134305;27;20675;-83
2021/08/03 06:15:47;;;;;;;10.67;8.83;;;;;;;;;;5137050;27;20284;-83
2021/08/03 06:18:18;;;;;;;12.60;8.53;;;;;;;;;;5137356;27;20232;-83
2021/08/03 06:20:46;;;;;;;10.83;8.13;;;;;;;;;;5136868;27;20627;-83
2021/08/03 06:23:14;;;;;;;13.13;8.53;;;;;;;;;;5137198;27;20247;-83
2021/08/03 06:25:42;;;;;;;12.23;7.90;;;;;;;;;;5136814;27;20283;-83
2021/08/03 06:28:09;;;;;;;9.67;8.63;;;;;;;;;;5137083;27;20225;-83
2021/08/03 06:30:38;;;;;;;8.87;7.50;;;;;;;;;;5136820;27;20221;-82
2021/08/03 06:33:06;;;;;;;12.03;7.30;;;;;;;;;;5136510;27;20207;-84
2021/08/03 06:35:34;;;;;;;10.50;7.67;;;;;;;;;;5137114;27;20201;-83
2021/08/03 06:38:02;;;;;;;8.47;7.33;;;;;;;;;;5136653;27;20743;-83
2021/08/03 06:40:30;;;;;;;10.07;7.50;;;;;;;;;;5136332;27;20231;-83
2021/08/03 06:43:01;;;;;;;9.43;7.33;;;;;;;;;;5136431;27;20201;-83
2021/08/03 06:45:30;;;;;;;10.10;7.43;;;;;;;;;;5136766;27;20193;-83
2021/08/03 06:48:01;;;;;;;8.20;6.97;;;;;;;;;;5136268;27;20227;-83
2021/08/03 06:50:31;;;;;;;9.83;7.37;;;;;;;;;;5136339;27;20292;-83
2021/08/03 06:52:59;;;;;;;9.13;7.40;;;;;;;;;;5135783;27;20841;-83
2021/08/03 06:55:30;;;;;;;9.53;7.53;;;;;;;;;;5136144;27;20207;-83
2021/08/03 06:58:01;;;;;;;10.83;7.30;;;;;;;;;;5136476;27;20221;-83
2021/08/03 07:00:31;;;;;;;9.40;6.67;;;;;;;;;;5136329;27;20232;-83
2021/08/03 07:02:59;;;;;;;9.87;6.57;;;;;;;;;;5136174;27;20618;-83
2021/08/03 07:05:28;;;;;;;7.67;6.40;;;;;;;;;;5136052;27;20280;-83
2021/08/03 07:07:57;;;;;;;9.27;6.57;;;;;;;;;;5135470;27;20224;-83
2021/08/03 07:10:25;;;;;;;8.77;6.57;;;;;;;;;;5134814;27;20559;-83
2021/08/03 07:12:55;;;;;;;9.17;6.43;;;;;;;;;;5136073;27;20281;-83
2021/08/03 07:15:22;;;;;;;7.03;6.27;;;;;;;;;;5135911;27;20249;-83
2021/08/03 07:17:50;;;;;;;9.47;6.17;;;;;;;;;;5135847;27;20680;-83
2021/08/03 07:20:17;;;;;;;10.63;6.37;;;;;;;;;;5135994;27;20606;-83
2021/08/03 07:22:45;;;;;;;13.43;6.77;;;;;;;;;;5135540;27;20630;-83
2021/08/03 07:25:13;;;;;;;9.10;6.50;;;;;;;;;;5135930;27;20568;-82
2021/08/03 07:27:40;;;;;;;8.07;6.70;;;;;;;;;;5135955;27;20240;-83
2021/08/03 07:30:10;;;;;;;9.93;6.97;;;;;;;;;;5135737;27;20368;-82
2021/08/03 07:32:38;;;;;;;9.10;6.77;;;;;;;;;;5135618;27;20763;-83
2021/08/03 07:35:07;;;;;;;10.73;6.90;;;;;;;;;;5135599;27;20270;-83
2021/08/03 07:37:36;;;;;;;9.13;6.30;;;;;;;;;;5135664;27;20207;-83
2021/08/03 07:40:03;;;;;;;9.20;6.90;;;;;;;;;;5135315;27;20260;-83
2021/08/03 07:42:30;;;;;;;10.90;6.80;;;;;;;;;;5133942;27;20204;-83
2021/08/03 07:44:58;;;;;;;7.43;6.20;;;;;;;;;;5114803;28;20284;-83
2021/08/03 07:47:27;;;;;;;7.37;6.00;;;;;;;;;;5114817;27;20229;-83
2021/08/03 07:49:54;;;;;;;9.57;6.50;;;;;;;;;;5114519;28;20320;-82
2021/08/03 07:52:21;;;;;;;9.27;5.60;;;;;;;;;;5114151;28;20194;-83
2021/08/03 07:54:49;;;;;;;9.10;5.93;;;;;;;;;;5114232;28;20234;-82
2021/08/03 07:57:16;;;;;;;8.07;6.17;;;;;;;;;;5114622;28;20296;-83
2021/08/03 07:59:43;;;;;;;9.37;5.97;;;;;;;;;;5114406;28;20288;-84
2021/08/03 08:02:10;;;;;;;8.47;6.23;;;;;;;;;;5114495;28;20619;-83
2021/08/03 08:04:39;;;;;;;7.90;5.83;;;;;;;;;;5114146;28;20280;-83
2021/08/03 08:07:06;;;;;;;7.93;6.17;;;;;;;;;;5113565;28;20677;-83
2021/08/03 08:09:34;;;;;;;7.40;5.83;;;;;;;;;;5114148;28;20316;-83
2021/08/03 08:12:01;;;;;;;7.87;5.83;;;;;;;;;;5114388;28;20204;-83
2021/08/03 08:14:30;;;;;;;6.60;5.90;;;;;;;;;;5114295;28;20310;-83
2021/08/03 08:16:57;;;;;;;7.60;5.63;;;;;;;;;;5113862;28;20664;-83
2021/08/03 08:19:25;;;;;;;8.67;5.73;;;;;;;;;;5113666;28;20673;-83
2021/08/03 08:21:53;;;;;;;7.07;5.30;;;;;;;;;;5114070;28;20225;-82
2021/08/03 08:24:21;;;;;;;8.03;5.67;;;;;;;;;;5114389;28;20314;-83
2021/08/03 08:26:48;;;;;;;7.33;5.80;;;;;;;;;;5114363;28;20856;-83
2021/08/03 08:29:17;;;;;;;6.50;5.63;;;;;;;;;;5114003;28;20222;-82
2021/08/03 08:31:44;;;;;;;10.30;5.87;;;;;;;;;;5113598;28;20209;-82
2021/08/03 08:34:12;;;;;;;8.40;5.70;;;;;;;;;;5113824;28;20284;-82
2021/08/03 08:36:39;;;;;;;7.43;4.97;;;;;;;;;;5112895;28;20284;-82
2021/08/03 08:39:08;;;;;;;10.43;5.60;;;;;;;;;;5113514;28;20194;-82
2021/08/03 08:41:35;;;;;;;7.20;5.70;;;;;;;;;;5113762;28;20756;-82
2021/08/03 08:44:03;;;;;;;6.80;5.50;;;;;;;;;;5113277;27;20296;-82
2021/08/03 08:46:32;;;;;;;7.50;5.30;;;;;;;;;;5113831;28;20202;-83
2021/08/03 08:49:00;;;;;;;6.43;5.37;;;;;;;;;;5113190;28;20708;-83
2021/08/03 08:51:28;;;;;;;9.83;5.47;;;;;;;;;;5113573;28;20284;-82
2021/08/03 08:53:55;;;;;;;7.03;5.23;;;;;;;;;;5113180;28;20237;-83
2021/08/03 08:56:23;;;;;;;7.93;5.00;;;;;;;;;;5114366;28;20693;-82
2021/08/03 08:58:51;;;;;;;8.73;4.70;;;;;;;;;;5113354;28;20230;-82
2021/08/03 09:01:18;;;;;;;6.87;5.33;;;;;;;;;;5114698;27;20226;-82
2021/08/03 09:03:45;;;;;;;8.40;5.73;;;;;;;;;;5114710;28;20231;-82
2021/08/03 09:06:12;;;;;;;7.47;5.63;;;;;;;;;;5114476;28;20229;-82
2021/08/03 09:08:40;;;;;;;7.90;5.80;;;;;;;;;;5113591;28;20268;-82
2021/08/03 09:11:09;;;;;;;8.33;5.40;;;;;;;;;;5114803;28;20745;-82
2021/08/03 09:13:49;;;;;;;8.17;5.30;;;;;;;;;;5113746;28;20292;-83
2021/08/03 09:16:16;;;;;;;6.37;5.13;;;;;;;;;;5114028;28;20289;-83
2021/08/03 09:18:44;;;;;;;8.73;5.13;;;;;;;;;;5114492;28;20696;-83
2021/08/03 09:21:18;;;;;;;5.47;4.60;;;;;;;;;;5114821;27;20212;-83
2021/08/03 09:23:46;;;;;;;6.70;4.73;;;;;;;;;;5115262;28;20289;-83
2021/08/03 09:26:15;;;;;;;7.70;4.73;;;;;;;;;;5113318;28;20737;-82
2021/08/03 09:28:57;;;;;;;6.33;5.07;;;;;;;;;;5115413;28;20653;-83
2021/08/03 09:31:25;;;;;;;7.07;4.90;;;;;;;;;;5115829;28;20284;-83
2021/08/03 09:33:52;;;;;;;7.43;5.03;;;;;;;;;;5114830;28;20280;-83
2021/08/03 09:36:40;;;;;;;7.77;5.07;;;;;;;;;;5112964;28;20201;-83
2021/08/03 09:39:07;;;;;;;8.40;5.30;;;;;;;;;;5112778;28;20229;-82
2021/08/03 09:41:46;;;;;;;7.67;5.13;;;;;;;;;;5112708;28;20246;-83
2021/08/03 09:44:14;;;;;;;6.00;5.40;;;;;;;;;;5128865;28;20707;-83
2021/08/03 09:46:42;;;;;;;6.00;5.23;;;;;;;;;;5133441;27;20249;-83
2021/08/03 09:49:10;;;;;;;6.73;5.73;;;;;;;;;;5134888;27;20721;-82
2021/08/03 09:51:37;;;;;;;7.97;5.97;;;;;;;;;;5137490;27;20299;-83
2021/08/03 09:54:04;;;;;;;8.30;5.93;;;;;;;;;;5137144;27;20319;-83
2021/08/03 09:56:36;;;;;;;6.60;5.37;;;;;;;;;;5137393;27;20566;-83
2021/08/03 09:59:04;;;;;;;7.40;5.10;;;;;;;;;;5137612;27;20189;-83
2021/08/03 10:01:32;;;;;;;6.53;5.20;;;;;;;;;;5137105;27;20287;-83
2021/08/03 10:04:01;;;;;;;7.17;5.10;;;;;;;;;;5136966;27;20707;-83
2021/08/03 10:06:29;;;;;;;7.13;6.17;;;;;;;;;;5137255;27;20283;-83
2021/08/03 10:08:57;;;;;;;9.70;6.17;;;;;;;;;;5137304;27;20315;-83
2021/08/03 10:11:25;;;;;;;7.43;5.73;;;;;;;;;;5136921;27;20284;-83
2021/08/03 10:13:52;;;;;;;6.87;5.73;;;;;;;;;;5136848;27;20259;-83
2021/08/03 10:16:21;;;;;;;10.50;6.00;;;;;;;;;;5136937;27;20679;-83
2021/08/03 10:18:48;;;;;;;8.53;6.00;;;;;;;;;;5136900;27;20193;-83
2021/08/03 10:21:28;;;;;;;10.57;6.60;;;;;;;;;;5136727;27;20238;-83
2021/08/03 10:23:56;;;;;;;8.07;5.83;;;;;;;;;;5136831;27;20208;-83
2021/08/03 10:26:24;;;;;;;8.47;5.90;;;;;;;;;;5136752;27;20203;-83
2021/08/03 10:28:51;;;;;;;7.17;5.70;;;;;;;;;;5136528;27;20668;-83
2021/08/03 10:31:37;;;;;;;9.07;5.93;;;;;;;;;;5136451;27;20280;-83
2021/08/03 10:34:04;;;;;;;6.60;5.13;;;;;;;;;;5136518;27;20563;-83
2021/08/03 10:36:47;;;;;;;7.60;5.40;;;;;;;;;;5136497;27;20287;-82
2021/08/03 10:39:16;;;;;;;9.23;5.93;;;;;;;;;;5136372;27;20193;-83
2021/08/03 10:42:02;;;;;;;7.65;5.85;;;;;;;;;;5136215;27;20660;-83
2021/08/03 10:44:46;;;;;;;6.78;5.05;;;;;;;;;;5117879;27;20205;-83
2021/08/03 10:47:32;;;;;;;9.52;5.90;;;;;;;;;;5115740;28;20237;-83
2021/08/03 10:49:59;;;;;;;6.70;5.47;;;;;;;;;;5115436;28;20775;-83
2021/08/03 10:52:46;;;;;;;7.00;5.83;;;;;;;;;;5115694;28;20288;-83
2021/08/03 10:55:28;;;;;;;9.33;6.07;;;;;;;;;;5115408;27;20583;-83
2021/08/03 10:58:10;;;;;;;7.30;6.43;;;;;;;;;;5116085;28;20193;-83
2021/08/03 11:00:45;;;;;;;8.03;5.73;;;;;;;;;;5114513;28;20288;-83
2021/08/03 11:03:27;;;;;;;7.63;5.70;;;;;;;;;;5115406;28;20212;-82
2021/08/03 11:05:54;;;;;;;7.90;5.50;;;;;;;;;;5115561;28;20304;-82
2021/08/03 11:08:40;;;;;;;7.33;5.97;;;;;;;;;;5115496;28;20256;-82
2021/08/03 11:11:09;;;;;;;6.70;6.00;;;;;;;;;;5115302;28;20229;-82
2021/08/03 11:13:37;;;;;;;7.10;5.83;;;;;;;;;;5115481;28;20284;-83
2021/08/03 11:16:11;;;;;;;7.13;5.53;;;;;;;;;;5114937;27;20277;-83
2021/08/03 11:18:41;;;;;;;7.10;5.00;;;;;;;;;;5115329;28;20197;-82
2021/08/03 11:21:09;;;;;;;7.80;5.43;;;;;;;;;;5115454;28;20229;-83
2021/08/03 11:23:55;;;;;;;6.90;5.97;;;;;;;;;;5115219;28;20561;-83
2021/08/03 11:26:23;;;;;;;5.83;5.23;;;;;;;;;;5115184;28;20201;-82
2021/08/03 11:28:57;;;;;;;10.40;6.10;;;;;;;;;;5115136;28;20281;-83
2021/08/03 11:31:25;;;;;;;7.43;5.50;;;;;;;;;;5117054;28;20194;-83
2021/08/03 11:33:56;;;;;;;6.47;5.53;;;;;;;;;;5117704;28;20760;-83
2021/08/03 11:36:23;;;;;;;8.07;5.93;;;;;;;;;;5117739;28;20719;-83
2021/08/03 11:38:51;;;;;;;6.17;5.57;;;;;;;;;;5117887;28;20630;-82
2021/08/03 11:41:18;;;;;;;6.40;5.73;;;;;;;;;;5117893;28;20225;-83
2021/08/03 11:43:45;;;;;;;8.97;5.60;;;;;;;;;;5129585;27;20288;-82
2021/08/03 11:46:12;;;;;;;5.68;5.07;;;;;;;;;;5137412;27;20290;-83
2021/08/03 11:48:41;;;;;;;6.25;5.28;;;;;;;;;;5136865;27;20205;-83
2021/08/03 11:51:15;;;;;;;5.50;4.95;;;;;;;;;;5137148;27;20263;-83
2021/08/03 11:53:42;;;;;;;6.95;5.18;;;;;;;;;;5136861;27;20256;-83
2021/08/03 11:56:10;;;;;;;6.82;6.07;;;;;;;;;;5137090;27;20256;-83
2021/08/03 11:58:40;;;;;;;7.00;5.75;;;;;;;;;;5137759;27;20632;-83
2021/08/03 12:01:08;;;;;;;7.00;5.07;;;;;;;;;;5138042;27;20197;-83
2021/08/03 12:03:36;;;;;;;7.35;4.80;;;;;;;;;;5137572;27;20725;-83
2021/08/03 12:06:06;;;;;;;5.03;4.47;;;;;;;;;;5137843;27;20269;-83
2021/08/03 12:08:33;;;;;;;5.13;4.32;;;;;;;;;;5136969;27;20740;-83
2021/08/03 12:11:01;;;;;;;5.22;4.15;;;;;;;;;;5136842;27;20818;-83
2021/08/03 12:13:29;;;;;;;6.03;4.35;;;;;;;;;;5137430;27;20291;-82
2021/08/03 12:15:57;;;;;;;6.25;4.80;;;;;;;;;;5137394;27;20288;-83
2021/08/03 12:18:25;;;;;;;5.93;4.20;;;;;;;;;;5137925;27;20274;-82
2021/08/03 12:20:53;;;;;;;4.10;3.70;;;;;;;;;;5137824;27;20201;-84
2021/08/03 12:23:23;;;;;;;5.88;3.88;;;;;;;;;;5137724;27;20197;-83
2021/08/03 12:25:53;;;;;;;6.03;4.00;;;;;;;;;;5136958;27;20747;-83
2021/08/03 12:28:27;;;;;;;4.57;3.85;;;;;;;;;;5136288;27;20724;-83
2021/08/03 12:30:54;;;;;;;4.10;3.70;;;;;;;;;;5136519;27;20663;-83
2021/08/03 12:33:29;;;;;;;6.38;3.97;;;;;;;;;;5136649;27;20224;-83
2021/08/03 12:36:05;;;;;;;5.38;4.40;;;;;;;;;;5137210;27;20228;-83
2021/08/03 12:38:34;;;;;;;5.28;4.43;;;;;;;;;;5137307;27;20303;-83
2021/08/03 12:41:15;;;;;;;4.38;3.67;;;;;;;;;;5137053;27;20197;-83
2021/08/03 12:43:42;;;;;;;4.40;3.75;;;;;;;;;;5124762;27;20236;-83
2021/08/03 12:46:09;;;;;;;4.25;3.85;;;;;;;;;;5116506;28;20226;-83
2021/08/03 12:48:38;;;;;;;5.68;3.75;;;;;;;;;;5115220;28;20244;-83
2021/08/03 12:51:05;;;;;;;4.70;3.80;;;;;;;;;;5114444;28;20234;-83
2021/08/03 12:53:34;;;;;;;6.55;3.90;;;;;;;;;;5113208;27;20324;-83
2021/08/03 12:56:26;;;;;;;6.90;4.20;;;;;;;;;;5113263;27;20288;-83
2021/08/03 12:58:54;;;;;;;4.30;3.83;;;;;;;;;;5113708;27;20201;-83
2021/08/03 13:01:23;;;;;;;5.47;4.17;;;;;;;;;;5113923;28;20197;-83
2021/08/03 13:03:51;;;;;;;6.60;4.03;;;;;;;;;;5113847;28;20206;-82
2021/08/03 13:06:18;;;;;;;4.67;4.17;;;;;;;;;;5113104;28;20617;-82
2021/08/03 13:08:47;;;;;;;5.03;4.53;;;;;;;;;;5113622;28;20257;-83
2021/08/03 13:11:16;;;;;;;5.13;4.20;;;;;;;;;;5113414;28;20312;-83
2021/08/03 13:13:44;;;;;;;4.57;4.10;;;;;;;;;;5113306;28;20247;-83
2021/08/03 13:16:11;;;;;;;5.67;4.00;;;;;;;;;;5113477;28;20208;-83
2021/08/03 13:18:40;;;;;;;4.17;3.70;;;;;;;;;;5113074;28;20315;-83
2021/08/03 13:21:07;;;;;;;4.13;3.72;;;;;;;;;;5113383;28;20189;-83
2021/08/03 13:23:35;;;;;;;5.10;3.97;;;;;;;;;;5112969;28;20612;-82
2021/08/03 13:26:04;;;;;;;4.23;3.87;;;;;;;;;;5112707;28;20237;-83
2021/08/03 13:28:32;;;;;;;4.95;4.20;;;;;;;;;;5112984;28;20704;-83
2021/08/03 13:30:59;;;;;;;4.35;3.80;;;;;;;;;;5113217;28;20222;-83
2021/08/03 13:33:26;;;;;;;4.93;4.30;;;;;;;;;;5113198;28;20254;-83
2021/08/03 13:35:54;;;;;;;5.83;4.37;;;;;;;;;;5113057;27;20281;-83
2021/08/03 13:38:21;;;;;;;4.32;3.83;;;;;;;;;;5113092;28;20189;-82
2021/08/03 13:40:48;;;;;;;4.73;3.63;;;;;;;;;;5112864;28;20229;-82
2021/08/03 13:43:16;;;;;;;4.67;3.70;;;;;;;;;;5112986;28;20296;-83
2021/08/03 13:45:44;;;;;;;4.93;3.63;;;;;;;;;;5112647;28;20244;-83
2021/08/03 13:48:11;;;;;;;4.20;3.50;;;;;;;;;;5112919;28;20221;-83
2021/08/03 13:50:38;;;;;;;3.85;3.45;;;;;;;;;;5112588;28;20308;-83
2021/08/03 13:53:05;;;;;;;4.60;3.50;;;;;;;;;;5112539;28;20230;-82
2021/08/03 13:55:33;;;;;;;4.20;3.45;;;;;;;;;;5112217;28;20244;-83
2021/08/03 13:58:01;;;;;;;4.38;3.28;;;;;;;;;;5112490;28;20615;-83
2021/08/03 14:00:29;;;;;;;3.45;3.15;;;;;;;;;;5112608;28;20559;-83
2021/08/03 14:02:57;;;;;;;4.03;3.63;;;;;;;;;;5112672;28;20236;-83
2021/08/03 14:05:24;;;;;;;4.45;3.45;;;;;;;;;;5112561;28;20272;-82
2021/08/03 14:07:51;;;;;;;4.80;4.03;;;;;;;;;;5112406;28;20285;-83
2021/08/03 14:10:18;;;;;;;4.85;3.42;;;;;;;;;;5112353;28;20320;-83
2021/08/03 14:12:46;;;;;;;4.07;3.40;;;;;;;;;;5112288;28;20194;-83
2021/08/03 14:15:13;;;;;;;3.75;3.35;;;;;;;;;;5112707;28;20615;-83
2021/08/03 14:17:41;;;;;;;3.90;3.50;;;;;;;;;;5112199;28;20237;-83
2021/08/03 14:20:09;;;;;;;4.22;3.13;;;;;;;;;;5112519;28;20236;-83
2021/08/03 14:22:36;;;;;;;5.10;3.40;;;;;;;;;;5112004;28;20728;-83
2021/08/03 14:25:04;;;;;;;3.33;3.03;;;;;;;;;;5112203;28;20614;-83
2021/08/03 14:27:31;;;;;;;4.75;3.47;;;;;;;;;;5112326;28;20286;-83
2021/08/03 14:29:58;;;;;;;3.55;2.78;;;;;;;;;;5111923;28;20229;-83
2021/08/03 14:32:25;;;;;;;3.55;3.25;;;;;;;;;;5112551;28;20634;-83
2021/08/03 14:34:54;;;;;;;5.95;3.40;;;;;;;;;;5114265;28;20296;-83
2021/08/03 14:37:21;;;;;;;3.63;2.90;;;;;;;;;;5115862;27;20684;-83
2021/08/03 14:39:48;;;;;;;3.55;3.20;;;;;;;;;;5116021;28;20459;-83
2021/08/03 14:42:15;;;;;;;4.53;3.20;;;;;;;;;;5116036;28;20282;-83
2021/08/03 14:44:43;;;;;;;4.30;3.15;;;;;;;;;;5136054;27;20611;-83
2021/08/03 14:47:10;;;;;;;3.30;3.00;;;;;;;;;;5136510;27;20205;-83
2021/08/03 14:49:37;;;;;;;5.97;3.17;;;;;;;;;;5136448;27;20182;-83
2021/08/03 14:52:06;;;;;;;3.25;2.95;;;;;;;;;;5135824;27;21236;-83